< < Back
Terminal Aerodrome Forecast


Current Version              Previous Versions:   1  2  3  4  5  6  7  8  9  

Terminal Aerodrome Forecast

470
FTUS42 KJAX 201838 AAA
TAFSSI
TAF AMD
KSSI 201838Z 2019/2118 23010KT P6SM VCSH SCT025 SCT040 BKN090
     FM202100 25009KT P6SM -SHRA SCT015 BKN030 OVC050
     FM210100 18007KT P6SM VCSH FEW025 SCT040 BKN150
     FM210900 27008KT P6SM VCSH SCT030 BKN200
     FM211300 33009KT P6SM BKN250=



Latest METAR

054
SAUS70 KWBC 210300 RRG
MTRSSI
METAR KSSI 210253Z AUTO 23009KT 10SM CLR 18/17 A2988 RMK AO2 SLP118
T01830167 51016 $


USA.gov is the U.S. government's official web portal to all federal, state and local government web resources and services.